Time;durP1;ratioP1;P1;durP2;ratioP2;P2;SDS_P1;SDS_P2;PMS_P1;PMS_P2;Temp;Humidity;BMP_temperature;BMP_pressure;BME280_temperature;BME280_humidity;BME280_pressure;Samples;Min_cycle;Max_cycle;Signal;HPM_P1;HPM_P2
2023/03/12 00:00:15;;;;;;;;;;;;;;;7.97;61.79;98586.69;5090313;28;19912;-36
2023/03/12 00:02:40;;;;;;;;;;;;;;;7.72;62.35;98594.59;5090590;28;19916;-36
2023/03/12 00:05:06;;;;;;;;;;;;;;;8.05;59.30;98582.16;5090372;28;19916;-36
2023/03/12 00:07:31;;;;;;;;;;;;;;;7.90;58.64;98590.41;5090304;28;20387;-36
2023/03/12 00:09:57;;;;;;;;;;;;;;;8.18;56.13;98593.47;5090573;28;19999;-36
2023/03/12 00:12:22;;;;;;;;;;;;;;;8.35;55.67;98599.03;5093738;28;19912;-37
2023/03/12 00:14:47;;;;;;;;;;;;;;;8.00;58.86;98602.16;5094489;28;19916;-36
2023/03/12 00:17:12;;;;;;;;;;;;;;;7.89;59.85;98605.50;5094403;28;19920;-36
2023/03/12 00:19:38;;;;;;;;;;;;;;;7.76;61.00;98602.91;5094317;28;19912;-36
2023/03/12 00:22:03;;;;;;;;;;;;;;;7.58;61.00;98603.66;5094490;28;20030;-36
2023/03/12 00:24:28;;;;;;;;;;;;;;;7.54;59.94;98605.91;5093872;28;19943;-36
2023/03/12 00:26:54;;;;;;;;;;;;;;;7.57;58.35;98594.88;5094195;28;19912;-36
2023/03/12 00:29:19;;;;;;;;;;;;;;;7.53;56.84;98604.25;5094443;28;19912;-37
2023/03/12 00:31:45;;;;;;;;;;;;;;;7.67;56.59;98610.28;5093458;28;19974;-36
2023/03/12 00:34:10;;;;;;;;;;;;;;;7.69;59.67;98602.97;5093629;28;19919;-37
2023/03/12 00:36:36;;;;;;;;;;;;;;;7.77;60.50;98597.41;5093780;28;19912;-36
2023/03/12 00:39:01;;;;;;;;;;;;;;;7.72;61.20;98597.25;5093940;28;19916;-37
2023/03/12 00:41:27;;;;;;;;;;;;;;;7.43;60.74;98607.38;5094333;28;19923;-37
2023/03/12 00:43:53;;;;;;;;;;;;;;;7.36;60.32;98596.00;5093724;28;19912;-37
2023/03/12 00:46:19;;;;;;;;;;;;;;;7.31;60.68;98600.28;5093648;28;19919;-37
2023/03/12 00:48:44;;;;;;;;;;;;;;;7.32;60.88;98584.19;5093478;28;19931;-37
2023/03/12 00:51:09;;;;;;;;;;;;;;;7.32;60.03;98586.03;5093732;28;19913;-37
2023/03/12 00:53:35;;;;;;;;;;;;;;;7.04;61.33;98588.00;5093722;28;20049;-37
2023/03/12 00:56:01;;;;;;;;;;;;;;;7.38;59.84;98596.59;5093667;28;19951;-36
2023/03/12 00:58:26;;;;;;;;;;;;;;;7.23;59.92;98601.34;5093455;28;19916;-37
2023/03/12 01:00:51;;;;;;;;;;;;;;;6.99;60.02;98610.78;5093698;28;19923;-37
2023/03/12 01:03:16;;;;;;;;;;;;;;;7.11;58.89;98597.72;5093551;28;20010;-37
2023/03/12 01:05:42;;;;;;;;;;;;;;;7.11;58.09;98606.47;5093437;28;19953;-37
2023/03/12 01:08:07;;;;;;;;;;;;;;;7.42;56.94;98615.50;5093345;28;19913;-37
2023/03/12 01:10:33;;;;;;;;;;;;;;;7.52;56.17;98617.72;5093477;28;19912;-38
2023/03/12 01:12:59;;;;;;;;;;;;;;;6.99;56.97;98614.25;5093457;28;20280;-38
2023/03/12 01:15:24;;;;;;;;;;;;;;;7.18;56.14;98627.63;5093260;28;20384;-37
2023/03/12 01:17:50;;;;;;;;;;;;;;;6.80;56.17;98615.91;5093224;28;19919;-37
2023/03/12 01:20:15;;;;;;;;;;;;;;;6.89;55.94;98615.69;5093137;28;19912;-37
2023/03/12 01:22:40;;;;;;;;;;;;;;;6.83;54.26;98618.16;5091630;28;19924;-37
2023/03/12 01:25:06;;;;;;;;;;;;;;;6.70;53.52;98625.28;5092951;28;19923;-37
2023/03/12 01:27:31;;;;;;;;;;;;;;;6.68;53.61;98616.75;5093152;28;19916;-36
2023/03/12 01:29:57;;;;;;;;;;;;;;;6.65;54.27;98620.63;5092894;28;19911;-37
2023/03/12 01:32:22;;;;;;;;;;;;;;;6.97;52.41;98624.22;5092719;28;19912;-37
2023/03/12 01:34:47;;;;;;;;;;;;;;;7.00;52.65;98625.63;5092858;28;19916;-36
2023/03/12 01:37:12;;;;;;;;;;;;;;;6.55;53.60;98636.06;5092822;28;19912;-36
2023/03/12 01:39:38;;;;;;;;;;;;;;;6.60;53.38;98644.19;5092835;28;20287;-36
2023/03/12 01:42:03;;;;;;;;;;;;;;;6.63;54.63;98651.72;5091215;28;19990;-36
2023/03/12 01:44:28;;;;;;;;;;;;;;;6.54;54.54;98664.34;5093076;28;19928;-36
2023/03/12 01:46:54;;;;;;;;;;;;;;;6.36;54.17;98664.13;5092601;28;20322;-36
2023/03/12 01:49:30;;;;;;;;;;;;;;;6.22;54.80;98663.28;5092886;28;19912;-36
2023/03/12 01:52:02;;;;;;;;;;;;;;;6.30;53.19;98671.03;5092912;28;19922;-37
2023/03/12 01:54:30;;;;;;;;;;;;;;;6.62;52.54;98693.19;5092454;28;19916;-37
2023/03/12 01:56:56;;;;;;;;;;;;;;;6.23;52.66;98689.53;5093188;28;19930;-37
2023/03/12 01:59:42;;;;;;;;;;;;;;;6.24;53.34;98693.81;5092858;28;20003;-37
2023/03/12 02:02:08;;;;;;;;;;;;;;;6.36;53.19;98688.72;5092960;28;19912;-37
2023/03/12 02:04:35;;;;;;;;;;;;;;;6.40;52.50;98676.75;5092697;28;19912;-37
2023/03/12 02:07:03;;;;;;;;;;;;;;;6.75;51.41;98702.16;5092684;28;19916;-37
2023/03/12 02:09:31;;;;;;;;;;;;;;;6.27;52.12;98697.88;5092771;28;19919;-37
2023/03/12 02:11:56;;;;;;;;;;;;;;;6.16;52.30;98704.53;5092485;28;19920;-37
2023/03/12 02:14:21;;;;;;;;;;;;;;;6.10;52.13;98712.47;5092548;28;20000;-37
2023/03/12 02:16:46;;;;;;;;;;;;;;;6.02;52.57;98713.47;5092709;28;19912;-36
2023/03/12 02:19:16;;;;;;;;;;;;;;;6.14;52.31;98726.91;5092839;28;19919;-36
2023/03/12 02:21:41;;;;;;;;;;;;;;;6.08;52.17;98715.31;5092891;28;19924;-37
2023/03/12 02:24:25;;;;;;;;;;;;;;;5.99;52.85;98719.13;5092445;28;19951;-37
2023/03/12 02:26:51;;;;;;;;;;;;;;;5.94;53.06;98726.78;5092437;28;19947;-37
2023/03/12 02:29:16;;;;;;;;;;;;;;;5.93;53.18;98733.09;5092136;28;20387;-37
2023/03/12 02:31:44;;;;;;;;;;;;;;;5.87;52.59;98730.22;5092369;28;19923;-36
2023/03/12 02:34:09;;;;;;;;;;;;;;;5.72;53.26;98749.88;5091830;28;19912;-37
2023/03/12 02:36:35;;;;;;;;;;;;;;;5.82;53.41;98753.75;5092308;28;19923;-37
2023/03/12 02:39:00;;;;;;;;;;;;;;;5.80;52.42;98747.06;5092237;28;19920;-37
2023/03/12 02:41:28;;;;;;;;;;;;;;;5.61;52.98;98754.69;5092245;28;20380;-37
2023/03/12 02:44:03;;;;;;;;;;;;;;;5.90;52.47;98763.34;5092350;28;19916;-36
2023/03/12 02:46:31;;;;;;;;;;;;;;;5.57;52.98;98766.66;5092119;28;19920;-37
2023/03/12 02:48:56;;;;;;;;;;;;;;;5.55;53.38;98770.50;5092079;28;20390;-37
2023/03/12 02:51:22;;;;;;;;;;;;;;;5.93;52.68;98770.06;5091756;28;19916;-37
2023/03/12 02:53:53;;;;;;;;;;;;;;;5.96;51.71;98782.91;5091520;28;19923;-37
2023/03/12 02:56:18;;;;;;;;;;;;;;;5.53;53.45;98785.72;5091697;28;20257;-37
2023/03/12 02:58:44;;;;;;;;;;;;;;;5.63;52.88;98789.63;5091769;28;19995;-37
2023/03/12 03:01:09;;;;;;;;;;;;;;;5.66;52.95;98788.44;5091915;28;19912;-37
2023/03/12 03:03:34;;;;;;;;;;;;;;;5.66;52.81;98788.44;5092093;28;19919;-37
2023/03/12 03:05:59;;;;;;;;;;;;;;;5.70;52.44;98791.50;5091614;28;20304;-37
2023/03/12 03:08:25;;;;;;;;;;;;;;;5.34;53.13;98801.22;5091673;28;20065;-37
2023/03/12 03:10:51;;;;;;;;;;;;;;;5.38;53.01;98801.66;5091602;28;19953;-37
2023/03/12 03:13:16;;;;;;;;;;;;;;;5.56;52.37;98811.69;5091567;28;19947;-37
2023/03/12 03:15:42;;;;;;;;;;;;;;;5.41;52.51;98815.28;5091624;28;20072;-37
2023/03/12 03:18:07;;;;;;;;;;;;;;;5.47;52.39;98825.06;5091342;28;20397;-37
2023/03/12 03:20:33;;;;;;;;;;;;;;;5.47;52.18;98830.34;5090662;28;19912;-37
2023/03/12 03:22:58;;;;;;;;;;;;;;;5.34;52.64;98822.31;5091235;28;19924;-37
2023/03/12 03:25:23;;;;;;;;;;;;;;;5.33;52.60;98817.22;5091545;28;19912;-35
2023/03/12 03:27:49;;;;;;;;;;;;;;;5.38;52.25;98814.84;5091309;28;19919;-37
2023/03/12 03:30:15;;;;;;;;;;;;;;;5.20;52.28;98826.69;5091172;28;20293;-36
2023/03/12 03:32:41;;;;;;;;;;;;;;;5.32;52.11;98819.06;5091346;28;19922;-36
2023/03/12 03:35:06;;;;;;;;;;;;;;;5.39;51.98;98838.41;5091260;28;20293;-37
2023/03/12 03:37:32;;;;;;;;;;;;;;;5.44;51.64;98854.47;5091064;28;19916;-36
2023/03/12 03:39:57;;;;;;;;;;;;;;;5.46;51.65;98847.19;5091242;28;19978;-37
2023/03/12 03:42:22;;;;;;;;;;;;;;;5.43;51.46;98855.47;5091178;28;19932;-37
2023/03/12 03:44:47;;;;;;;;;;;;;;;5.61;51.30;98854.19;5091166;28;20074;-37
2023/03/12 03:47:13;;;;;;;;;;;;;;;5.49;51.06;98846.78;5090365;28;19916;-37
2023/03/12 03:49:38;;;;;;;;;;;;;;;5.17;51.67;98856.06;5090763;28;19912;-37
2023/03/12 03:52:05;;;;;;;;;;;;;;;5.38;50.88;98868.41;5090204;28;19934;-37
2023/03/12 03:54:30;;;;;;;;;;;;;;;5.38;50.87;98862.34;5090932;28;19935;-37
2023/03/12 03:56:55;;;;;;;;;;;;;;;5.25;51.63;98863.03;5091137;28;19912;-38
2023/03/12 03:59:21;;;;;;;;;;;;;;;5.32;50.89;98863.09;5090969;28;20135;-37
2023/03/12 04:01:46;;;;;;;;;;;;;;;5.21;50.68;98859.16;5090982;28;19912;-37
2023/03/12 04:04:11;;;;;;;;;;;;;;;5.08;50.74;98870.41;5091018;28;19916;-37
2023/03/12 04:06:36;;;;;;;;;;;;;;;5.19;50.60;98874.34;5090727;28;19912;-37
2023/03/12 04:09:02;;;;;;;;;;;;;;;4.97;51.23;98877.00;5090755;28;19970;-37
2023/03/12 04:11:27;;;;;;;;;;;;;;;5.12;50.34;98878.75;5090949;28;20004;-37
2023/03/12 04:13:52;;;;;;;;;;;;;;;5.24;50.11;98887.81;5090558;28;19912;-37
2023/03/12 04:16:18;;;;;;;;;;;;;;;5.20;49.86;98889.19;5090539;28;19916;-36
2023/03/12 04:18:43;;;;;;;;;;;;;;;5.11;49.63;98900.88;5090811;28;19919;-36
2023/03/12 04:21:09;;;;;;;;;;;;;;;5.24;49.88;98904.44;5090580;28;19916;-37
2023/03/12 04:23:35;;;;;;;;;;;;;;;5.32;49.67;98905.31;5090425;28;19971;-36
2023/03/12 04:26:00;;;;;;;;;;;;;;;5.23;49.60;98900.16;5090663;28;20288;-37
2023/03/12 04:28:26;;;;;;;;;;;;;;;5.37;49.07;98898.47;5090775;28;19916;-36
2023/03/12 04:30:58;;;;;;;;;;;;;;;5.60;49.61;98908.00;5090553;28;19916;-37
2023/03/12 04:33:24;;;;;;;;;;;;;;;5.48;49.39;98900.59;5090412;28;19912;-36
2023/03/12 04:35:51;;;;;;;;;;;;;;;5.39;49.02;98900.94;5090093;28;19916;-38
2023/03/12 04:38:16;;;;;;;;;;;;;;;5.27;49.18;98900.59;5090503;28;19946;-37
2023/03/12 04:40:41;;;;;;;;;;;;;;;5.29;48.72;98909.13;5090130;28;19920;-38
2023/03/12 04:43:07;;;;;;;;;;;;;;;5.32;48.90;98914.03;5090000;28;19919;-36
2023/03/12 04:45:32;;;;;;;;;;;;;;;5.35;49.21;98921.59;5089909;28;19917;-36
2023/03/12 04:47:57;;;;;;;;;;;;;;;5.36;49.25;98932.97;5090426;28;19912;-36
2023/03/12 04:50:23;;;;;;;;;;;;;;;5.45;48.74;98937.09;5090376;28;20011;-36
2023/03/12 04:52:48;;;;;;;;;;;;;;;5.41;48.45;98941.94;5090777;28;20003;-36
2023/03/12 04:55:13;;;;;;;;;;;;;;;5.44;48.66;98936.25;5090433;28;20313;-36
2023/03/12 04:57:38;;;;;;;;;;;;;;;5.60;48.23;98944.94;5092088;28;19919;-37
2023/03/12 05:00:09;;;;;;;;;;;;;;;5.93;47.72;98950.47;5094204;28;19912;-36
2023/03/12 05:02:35;;;;;;;;;;;;;;;6.15;47.23;98945.13;5094415;28;19912;-36
2023/03/12 05:05:00;;;;;;;;;;;;;;;6.15;46.64;98951.25;5094165;28;19953;-36
2023/03/12 05:07:26;;;;;;;;;;;;;;;6.37;46.78;98962.53;5093850;28;19931;-36
2023/03/12 05:09:51;;;;;;;;;;;;;;;6.46;46.74;98963.22;5094174;28;19976;-36
2023/03/12 05:12:16;;;;;;;;;;;;;;;6.30;46.34;98974.91;5093490;28;19912;-37
2023/03/12 05:14:41;;;;;;;;;;;;;;;6.65;45.76;98985.47;5093272;28;20291;-37
2023/03/12 05:17:07;;;;;;;;;;;;;;;6.67;46.02;98983.44;5093064;28;19995;-38
2023/03/12 05:19:32;;;;;;;;;;;;;;;6.78;44.69;98992.66;5093334;28;19935;-37
2023/03/12 05:21:57;;;;;;;;;;;;;;;7.17;44.09;98993.78;5093535;28;20085;-36
2023/03/12 05:24:23;;;;;;;;;;;;;;;6.91;44.32;98997.16;5093034;28;20042;-37
2023/03/12 05:26:48;;;;;;;;;;;;;;;6.79;44.97;98986.34;5093754;28;19927;-37
2023/03/12 05:29:14;;;;;;;;;;;;;;;7.25;44.33;99001.53;5094112;28;20007;-37
2023/03/12 05:31:39;;;;;;;;;;;;;;;7.00;44.27;99001.28;5109782;28;20007;-37
2023/03/12 05:34:04;;;;;;;;;;;;;;;7.37;43.50;98986.72;5097024;28;19920;-37
2023/03/12 05:36:30;;;;;;;;;;;;;;;6.82;44.24;98993.88;5105190;28;19961;-37
2023/03/12 05:38:56;;;;;;;;;;;;;;;7.31;44.27;99000.75;5092792;28;19931;-35
2023/03/12 05:41:23;;;;;;;;;;;;;;;7.61;43.23;99011.78;5093088;28;19978;-36
2023/03/12 05:43:48;;;;;;;;;;;;;;;8.12;42.12;98994.47;5091935;28;20419;-36
2023/03/12 05:46:13;;;;;;;;;;;;;;;8.25;41.97;99008.75;5092709;28;19916;-36
2023/03/12 05:48:38;;;;;;;;;;;;;;;8.72;41.87;99014.78;5091171;28;20392;-37
2023/03/12 05:51:04;;;;;;;;;;;;;;;8.55;41.26;99028.50;5092653;28;19912;-34
2023/03/12 05:53:29;;;;;;;;;;;;;;;8.73;41.20;99035.00;5092493;28;19919;-36
2023/03/12 05:55:54;;;;;;;;;;;;;;;9.08;40.55;99029.34;5092393;28;20411;-40
2023/03/12 05:58:20;;;;;;;;;;;;;;;9.50;39.20;99035.88;5092620;28;19920;-37
2023/03/12 06:00:45;;;;;;;;;;;;;;;8.77;40.80;99041.50;5092115;28;19954;-38
2023/03/12 06:03:10;;;;;;;;;;;;;;;9.22;39.60;99038.88;5092519;28;19912;-37
2023/03/12 06:05:36;;;;;;;;;;;;;;;8.99;40.16;99050.81;5092410;28;20002;-37
2023/03/12 06:08:02;;;;;;;;;;;;;;;9.23;39.57;99048.47;5092506;28;20308;-37
2023/03/12 06:10:27;;;;;;;;;;;;;;;9.57;39.52;99063.19;5091409;28;19919;-36
2023/03/12 06:12:53;;;;;;;;;;;;;;;9.61;38.59;99068.09;5092296;28;19912;-37
2023/03/12 06:15:18;;;;;;;;;;;;;;;10.29;38.11;99057.56;5092151;28;19919;-36
2023/03/12 06:17:43;;;;;;;;;;;;;;;11.28;37.02;99056.75;5092029;28;19916;-36
2023/03/12 06:20:09;;;;;;;;;;;;;;;10.99;36.54;99069.00;5091996;28;20308;-35
2023/03/12 06:22:34;;;;;;;;;;;;;;;10.22;37.03;99080.75;5091981;28;19926;-35
2023/03/12 06:25:00;;;;;;;;;;;;;;;9.78;37.73;99080.66;5092033;28;20018;-36
2023/03/12 06:27:25;;;;;;;;;;;;;;;9.86;37.69;99089.41;5091831;28;19977;-37
2023/03/12 06:29:50;;;;;;;;;;;;;;;10.29;36.64;99083.34;5091568;28;19962;-36
2023/03/12 06:32:17;;;;;;;;;;;;;;;10.40;36.53;99088.00;5091620;28;20275;-37
2023/03/12 06:34:42;;;;;;;;;;;;;;;10.21;36.83;99095.09;5091574;28;19923;-36
2023/03/12 06:37:08;;;;;;;;;;;;;;;10.51;36.25;99099.78;5091601;28;19912;-36
2023/03/12 06:39:33;;;;;;;;;;;;;;;10.16;35.39;99106.34;5091559;28;19912;-36
2023/03/12 06:41:58;;;;;;;;;;;;;;;9.99;35.08;99121.19;5091816;28;20002;-36
2023/03/12 06:44:24;;;;;;;;;;;;;;;9.67;35.62;99115.91;5091686;28;20295;-37
2023/03/12 06:46:49;;;;;;;;;;;;;;;9.90;35.68;99117.16;5091470;28;19912;-36
2023/03/12 06:49:14;;;;;;;;;;;;;;;9.52;34.59;99117.97;5091551;28;19916;-36
2023/03/12 06:51:40;;;;;;;;;;;;;;;10.13;34.34;99125.41;5091503;28;19913;-36
2023/03/12 06:54:05;;;;;;;;;;;;;;;10.25;34.34;99125.53;5091441;28;19943;-37
2023/03/12 06:56:31;;;;;;;;;;;;;;;10.96;32.91;99126.16;5091506;28;19998;-37
2023/03/12 06:58:56;;;;;;;;;;;;;;;10.73;33.38;99129.44;5091461;28;20385;-37
2023/03/12 07:01:21;;;;;;;;;;;;;;;11.00;32.46;99142.50;5091324;28;19916;-36
2023/03/12 07:03:47;;;;;;;;;;;;;;;11.47;32.22;99148.13;5091282;28;19920;-36
2023/03/12 07:06:16;;;;;;;;;;;;;;;11.14;32.67;99155.44;5091558;28;19951;-36
2023/03/12 07:08:42;;;;;;;;;;;;;;;11.14;32.59;99149.31;5090930;28;19912;-35
2023/03/12 07:11:07;;;;;;;;;;;;;;;10.66;32.56;99147.31;5091303;28;20314;-38
2023/03/12 07:13:32;;;;;;;;;;;;;;;10.62;33.15;99154.09;5091218;28;19916;-36
2023/03/12 07:15:58;;;;;;;;;;;;;;;11.27;32.09;99151.84;5091112;28;19985;-36
2023/03/12 07:18:23;;;;;;;;;;;;;;;11.10;32.67;99154.28;5090979;28;19912;-36
2023/03/12 07:20:48;;;;;;;;;;;;;;;11.53;32.25;99152.53;5093527;28;19969;-35
2023/03/12 07:23:14;;;;;;;;;;;;;;;11.28;31.99;99153.44;5108361;28;20358;-37
2023/03/12 07:25:40;;;;;;;;;;;;;;;11.34;31.61;99144.56;5111576;28;19976;-37
2023/03/12 07:28:07;;;;;;;;;;;;;;;11.38;32.45;99146.78;5111322;28;19968;-36
2023/03/12 07:30:32;;;;;;;;;;;;;;;11.29;32.02;99127.63;5111594;28;19964;-36
2023/03/12 07:33:01;;;;;;;;;;;;;;;11.61;33.52;99128.25;5111301;28;20059;-36
2023/03/12 07:35:27;;;;;;;;;;;;;;;11.52;33.22;99125.09;5111180;28;20034;-36
2023/03/12 07:37:52;;;;;;;;;;;;;;;12.01;33.14;99134.91;5111726;28;20006;-37
2023/03/12 07:40:17;;;;;;;;;;;;;;;11.66;31.09;99127.59;5110970;28;20283;-37
2023/03/12 07:42:42;;;;;;;;;;;;;;;12.11;31.37;99128.00;5101284;28;19919;-37
2023/03/12 07:45:08;;;;;;;;;;;;;;;11.84;31.04;99137.38;5089911;28;19912;-35
2023/03/12 07:47:33;;;;;;;;;;;;;;;12.02;30.55;99133.91;5089990;28;20269;-37
2023/03/12 07:50:00;;;;;;;;;;;;;;;11.43;31.55;99144.28;5090416;28;19913;-35
2023/03/12 07:52:26;;;;;;;;;;;;;;;11.43;30.85;99154.94;5090388;28;20288;-36
2023/03/12 07:54:53;;;;;;;;;;;;;;;11.42;30.62;99151.44;5090322;28;19946;-37
2023/03/12 07:57:18;;;;;;;;;;;;;;;11.51;30.75;99151.97;5090613;28;19916;-37
2023/03/12 07:59:43;;;;;;;;;;;;;;;11.93;31.33;99155.53;5090397;28;19912;-36
2023/03/12 08:02:09;;;;;;;;;;;;;;;11.80;30.75;99149.53;5090268;28;19981;-36
2023/03/12 08:04:34;;;;;;;;;;;;;;;12.18;32.41;99173.22;5089628;28;20399;-36
2023/03/12 08:07:00;;;;;;;;;;;;;;;12.36;32.03;99175.03;5089668;28;19985;-36
2023/03/12 08:09:26;;;;;;;;;;;;;;;13.47;30.49;99169.81;5090171;28;19951;-36
2023/03/12 08:11:51;;;;;;;;;;;;;;;12.62;29.58;99178.31;5089450;28;19920;-36
2023/03/12 08:14:16;;;;;;;;;;;;;;;12.73;29.99;99182.84;5089610;28;19919;-36
2023/03/12 08:16:41;;;;;;;;;;;;;;;13.38;29.52;99187.25;5089740;28;19916;-36
2023/03/12 08:19:07;;;;;;;;;;;;;;;14.06;28.43;99188.31;5090465;28;20488;-37
2023/03/12 08:21:33;;;;;;;;;;;;;;;13.72;27.32;99167.91;5090921;28;19916;-37
2023/03/12 08:23:58;;;;;;;;;;;;;;;13.76;27.92;99177.06;5090255;28;20326;-38
2023/03/12 08:26:23;;;;;;;;;;;;;;;13.86;28.92;99167.38;5090320;28;19916;-37
2023/03/12 08:28:49;;;;;;;;;;;;;;;13.42;28.33;99152.88;5090751;28;19912;-37
2023/03/12 08:31:14;;;;;;;;;;;;;;;13.19;28.39;99143.81;5090442;28;19934;-37
2023/03/12 08:33:42;;;;;;;;;;;;;;;13.41;27.87;99130.69;5093899;28;19961;-37
2023/03/12 08:36:07;;;;;;;;;;;;;;;13.66;28.58;99135.69;5094043;28;19916;-36
2023/03/12 08:38:33;;;;;;;;;;;;;;;13.32;28.24;99128.63;5094154;28;19918;-36
2023/03/12 08:40:59;;;;;;;;;;;;;;;12.99;28.37;99119.34;5093958;28;19912;-36
2023/03/12 08:43:25;;;;;;;;;;;;;;;13.18;28.42;99134.19;5093781;28;20026;-36
2023/03/12 08:46:01;;;;;;;;;;;;;;;13.69;28.42;99140.59;5093782;28;20403;-36
2023/03/12 08:48:27;;;;;;;;;;;;;;;13.52;27.63;99153.09;5093848;28;19912;-37
2023/03/12 08:50:59;;;;;;;;;;;;;;;13.30;27.58;99168.94;5093871;28;20327;-37
2023/03/12 08:53:25;;;;;;;;;;;;;;;13.48;27.78;99176.78;5093916;28;20003;-36
2023/03/12 08:55:54;;;;;;;;;;;;;;;13.32;27.93;99176.72;5093669;28;20020;-37
2023/03/12 08:58:20;;;;;;;;;;;;;;;13.18;26.90;99170.78;5093668;28;19918;-37
2023/03/12 09:00:45;;;;;;;;;;;;;;;13.41;26.96;99172.63;5093743;28;19977;-38
2023/03/12 09:03:13;;;;;;;;;;;;;;;12.95;26.90;99171.63;5093590;28;20326;-37
2023/03/12 09:05:39;;;;;;;;;;;;;;;12.86;26.51;99179.97;5093645;28;19943;-37
2023/03/12 09:08:04;;;;;;;;;;;;;;;12.77;27.26;99181.34;5093492;28;19920;-37
2023/03/12 09:10:29;;;;;;;;;;;;;;;12.13;27.31;99171.25;5093607;28;19919;-35
2023/03/12 09:12:55;;;;;;;;;;;;;;;12.19;27.53;99166.06;5093959;28;19912;-37
2023/03/12 09:15:20;;;;;;;;;;;;;;;12.52;27.92;99178.88;5094246;28;19916;-36
2023/03/12 09:17:46;;;;;;;;;;;;;;;12.75;28.00;99164.75;5094540;28;19962;-38
2023/03/12 09:20:15;;;;;;;;;;;;;;;13.47;28.37;99158.31;5094517;28;19912;-37
2023/03/12 09:22:41;;;;;;;;;;;;;;;13.46;28.12;99162.03;5093836;28;19920;-36
2023/03/12 09:25:07;;;;;;;;;;;;;;;13.64;26.83;99153.03;5093820;28;20015;-37
2023/03/12 09:27:36;;;;;;;;;;;;;;;13.35;27.19;99162.91;5093747;28;19916;-37
2023/03/12 09:30:02;;;;;;;;;;;;;;;13.23;27.09;99153.00;5093565;28;19912;-37
2023/03/12 09:32:27;;;;;;;;;;;;;;;13.64;27.54;99167.22;5093514;28;19999;-38
2023/03/12 09:34:53;;;;;;;;;;;;;;;12.97;27.41;99159.66;5092534;28;20372;-36
2023/03/12 09:37:18;;;;;;;;;;;;;;;12.76;28.72;99173.59;5093476;28;19919;-36
2023/03/12 09:39:43;;;;;;;;;;;;;;;13.11;28.38;99176.25;5093488;28;19913;-37
2023/03/12 09:42:16;;;;;;;;;;;;;;;13.25;28.08;99193.66;5093380;28;19981;-37
2023/03/12 09:44:44;;;;;;;;;;;;;;;12.60;27.83;99173.19;5092685;28;19981;-37
2023/03/12 09:47:24;;;;;;;;;;;;;;;12.79;27.21;99202.47;5093368;28;19912;-36
2023/03/12 09:49:53;;;;;;;;;;;;;;;12.64;28.82;99194.91;5093451;28;19912;-37
2023/03/12 09:52:24;;;;;;;;;;;;;;;13.23;27.90;99187.75;5092836;28;19912;-37
2023/03/12 09:54:59;;;;;;;;;;;;;;;13.72;27.80;99189.28;5093354;28;19916;-37
2023/03/12 09:57:25;;;;;;;;;;;;;;;13.59;28.10;99182.34;5093215;28;19919;-36
2023/03/12 09:59:51;;;;;;;;;;;;;;;13.69;27.60;99188.72;5092982;28;19916;-36
2023/03/12 10:02:22;;;;;;;;;;;;;;;13.20;28.24;99201.56;5092683;28;19953;-36
2023/03/12 10:05:01;;;;;;;;;;;;;;;13.28;28.19;99181.69;5092746;28;19916;-35
2023/03/12 10:07:31;;;;;;;;;;;;;;;13.35;28.53;99195.75;5092516;28;19920;-37
2023/03/12 10:10:09;;;;;;;;;;;;;;;13.25;28.35;99193.66;5092378;28;19919;-37
2023/03/12 10:12:49;;;;;;;;;;;;;;;13.45;27.65;99192.50;5091880;28;20301;-37
2023/03/12 10:15:35;;;;;;;;;;;;;;;13.43;27.89;99192.72;5092211;28;19916;-35
2023/03/12 10:18:16;;;;;;;;;;;;;;;13.03;28.74;99185.41;5092339;28;19989;-36
2023/03/12 10:20:50;;;;;;;;;;;;;;;13.56;28.11;99205.03;5092070;28;20556;-36
2023/03/12 10:23:22;;;;;;;;;;;;;;;13.68;27.99;99195.09;5091921;28;19999;-36
2023/03/12 10:26:02;;;;;;;;;;;;;;;13.37;27.98;99208.91;5091951;28;19915;-36
2023/03/12 10:28:33;;;;;;;;;;;;;;;13.63;29.26;99189.66;5091995;28;19912;-36
2023/03/12 10:31:17;;;;;;;;;;;;;;;13.26;29.17;99208.63;5091513;28;20272;-38
2023/03/12 10:33:49;;;;;;;;;;;;;;;13.62;28.10;99224.66;5091941;28;20002;-36
2023/03/12 10:36:17;;;;;;;;;;;;;;;13.75;28.80;99226.25;5091847;28;19916;-36
2023/03/12 10:38:43;;;;;;;;;;;;;;;13.90;28.72;99226.56;5091934;28;20336;-36
2023/03/12 10:41:16;;;;;;;;;;;;;;;14.23;28.77;99225.03;5091475;28;19916;-37
2023/03/12 10:43:41;;;;;;;;;;;;;;;13.82;28.73;99218.88;5091582;28;20053;-37
2023/03/12 10:46:30;;;;;;;;;;;;;;;13.58;28.09;99229.66;5091747;28;19961;-36
2023/03/12 10:49:13;;;;;;;;;;;;;;;13.95;27.79;99215.94;5081220;28;19919;-36
2023/03/12 10:51:55;;;;;;;;;;;;;;;13.16;29.32;99210.28;5090788;28;20362;-36
2023/03/12 10:54:30;;;;;;;;;;;;;;;12.68;30.33;99214.78;5090655;28;19923;-37
2023/03/12 10:56:55;;;;;;;;;;;;;;;12.80;29.86;99212.94;5083241;28;19912;-37
2023/03/12 10:59:24;;;;;;;;;;;;;;;13.81;28.89;99195.88;5091749;28;19912;-37
2023/03/12 11:01:51;;;;;;;;;;;;;;;14.78;28.57;99202.97;5091476;28;19912;-36
2023/03/12 11:04:18;;;;;;;;;;;;;;;14.89;27.92;99208.47;5091537;28;20403;-36
2023/03/12 11:07:01;;;;;;;;;;;;;;;14.31;27.94;99208.56;5091580;28;19941;-36
2023/03/12 11:09:27;;;;;;;;;;;;;;;14.57;27.61;99231.28;5091233;28;20001;-37
2023/03/12 11:11:52;;;;;;;;;;;;;;;14.12;27.36;99223.22;5091383;28;19990;-36
2023/03/12 11:14:20;;;;;;;;;;;;;;;13.72;28.26;99219.50;5091388;28;20318;-36
2023/03/12 11:16:46;;;;;;;;;;;;;;;13.92;27.86;99213.75;5091426;28;19916;-37
2023/03/12 11:19:12;;;;;;;;;;;;;;;13.47;28.24;99209.91;5091458;28;20273;-36
2023/03/12 11:21:39;;;;;;;;;;;;;;;13.74;28.34;99201.34;5090621;28;19916;-36
2023/03/12 11:24:06;;;;;;;;;;;;;;;13.81;28.13;99198.56;5091076;28;20425;-36
2023/03/12 11:26:34;;;;;;;;;;;;;;;14.00;27.93;99200.00;5091180;28;19912;-38
2023/03/12 11:29:11;;;;;;;;;;;;;;;14.13;28.29;99200.78;5091060;28;20311;-40
2023/03/12 11:31:40;;;;;;;;;;;;;;;14.31;27.78;99203.22;5090688;28;19999;-37
2023/03/12 11:34:11;;;;;;;;;;;;;;;14.20;28.16;99198.75;5090882;28;20067;-38
2023/03/12 11:36:46;;;;;;;;;;;;;;;14.53;28.01;99205.22;5090513;28;20014;-37
2023/03/12 11:39:29;;;;;;;;;;;;;;;14.15;27.26;99196.00;5090490;28;19912;-36
2023/03/12 11:42:01;;;;;;;;;;;;;;;14.28;28.24;99193.00;5090885;28;20010;-38
2023/03/12 11:44:30;;;;;;;;;;;;;;;14.46;28.90;99190.09;5090686;28;19919;-36
2023/03/12 11:47:05;;;;;;;;;;;;;;;14.20;27.38;99188.88;5090779;28;19947;-36
2023/03/12 11:49:36;;;;;;;;;;;;;;;14.76;26.25;99196.25;5090607;28;20404;-36
2023/03/12 11:52:12;;;;;;;;;;;;;;;14.97;26.24;99190.13;5090710;28;19912;-37
2023/03/12 11:54:40;;;;;;;;;;;;;;;14.16;27.77;99189.56;5090520;28;20336;-37
2023/03/12 11:57:12;;;;;;;;;;;;;;;15.15;26.67;99186.34;5090630;28;20010;-36
2023/03/12 11:59:37;;;;;;;;;;;;;;;14.87;26.70;99189.97;5090591;28;20704;-38
2023/03/12 12:02:22;;;;;;;;;;;;;;;14.64;26.87;99194.44;5090719;28;20015;-38
2023/03/12 12:04:56;;;;;;;;;;;;;;;14.96;25.81;99193.03;5090503;28;20003;-37
2023/03/12 12:07:24;;;;;;;;;;;;;;;14.64;26.80;99189.09;5091913;28;20036;-37
2023/03/12 12:09:56;;;;;;;;;;;;;;;14.83;25.86;99200.38;5094468;28;20363;-37
2023/03/12 12:12:21;;;;;;;;;;;;;;;15.04;25.17;99192.63;5094285;28;19916;-38
2023/03/12 12:15:01;;;;;;;;;;;;;;;15.36;25.56;99189.31;5094068;28;19974;-37
2023/03/12 12:17:26;;;;;;;;;;;;;;;15.53;25.37;99206.16;5094454;28;20451;-37
2023/03/12 12:19:58;;;;;;;;;;;;;;;14.61;26.10;99172.69;5094176;28;20003;-36
2023/03/12 12:22:26;;;;;;;;;;;;;;;15.44;25.58;99199.63;5094177;28;19920;-37
2023/03/12 12:25:10;;;;;;;;;;;;;;;15.68;25.80;99194.00;5091525;28;19926;-38
2023/03/12 12:27:37;;;;;;;;;;;;;;;15.79;25.83;99185.03;5091664;28;19923;-37
2023/03/12 12:30:14;;;;;;;;;;;;;;;15.82;26.04;99181.84;5094031;28;20401;-38
2023/03/12 12:32:55;;;;;;;;;;;;;;;15.77;25.60;99187.97;5092059;28;19934;-37
2023/03/12 12:35:23;;;;;;;;;;;;;;;15.97;25.45;99189.25;5091759;28;19918;-36
2023/03/12 12:37:57;;;;;;;;;;;;;;;15.92;25.49;99190.03;5093946;28;19916;-37
2023/03/12 12:40:25;;;;;;;;;;;;;;;15.48;33.84;99186.50;5094322;28;19912;-37
2023/03/12 12:43:20;;;;;;;;;;;;;;;15.69;25.68;99174.16;5094497;28;19950;-37
2023/03/12 12:45:47;;;;;;;;;;;;;;;16.29;27.36;99197.34;5109353;28;19962;-37
2023/03/12 12:48:25;;;;;;;;;;;;;;;15.39;25.37;99200.34;5113954;28;19939;-37
2023/03/12 12:50:52;;;;;;;;;;;;;;;15.57;27.26;99199.25;5114419;28;20309;-36
2023/03/12 12:53:28;;;;;;;;;;;;;;;15.20;25.32;99194.47;5114168;28;19911;-37